createdAt,value
2022-10-10T00:00:44.814Z,8.73
2022-10-10T00:01:47.894Z,8.73
2022-10-10T00:02:50.202Z,8.73
2022-10-10T00:03:54.294Z,8.73
2022-10-10T00:04:56.455Z,8.74
2022-10-10T00:05:59.491Z,8.72
2022-10-10T00:07:01.532Z,8.73
2022-10-10T00:08:05.021Z,8.73
2022-10-10T00:09:07.048Z,8.72
2022-10-10T00:10:10.595Z,8.71
2022-10-10T00:11:14.808Z,8.71
2022-10-10T00:12:17.883Z,8.70
2022-10-10T00:13:20.027Z,8.70
2022-10-10T00:14:24.506Z,8.69
2022-10-10T00:15:26.806Z,8.69
2022-10-10T00:16:29.889Z,8.67
2022-10-10T00:17:31.927Z,8.69
2022-10-10T00:18:35.644Z,8.67
2022-10-10T00:19:37.932Z,8.67
2022-10-10T00:20:40.958Z,8.67
2022-10-10T00:21:42.998Z,8.67
2022-10-10T00:22:46.511Z,8.67
2022-10-10T00:23:48.545Z,8.66
2022-10-10T00:24:51.946Z,8.65
2022-10-10T00:25:54.226Z,8.66
2022-10-10T00:26:57.333Z,8.63
2022-10-10T00:28:01.483Z,8.64
2022-10-10T00:29:04.693Z,8.64
2022-10-10T00:30:09.756Z,8.64
2022-10-10T00:31:12.771Z,8.62
2022-10-10T00:32:14.832Z,8.64
2022-10-10T00:33:17.860Z,8.62
2022-10-10T00:34:20.946Z,8.63
2022-10-10T00:35:23.033Z,8.63
2022-10-10T00:36:26.076Z,8.62
2022-10-10T00:37:28.313Z,8.62
2022-10-10T00:38:32.558Z,8.62
2022-10-10T00:39:34.615Z,8.61
2022-10-10T00:40:45.916Z,8.58
2022-10-10T00:41:47.920Z,8.59
2022-10-10T00:42:51.330Z,8.59
2022-10-10T00:44:04.629Z,8.59
2022-10-10T00:45:28.960Z,8.58
2022-10-10T00:46:31.452Z,8.58
2022-10-10T00:47:34.972Z,8.57
2022-10-10T00:48:42.207Z,8.58
2022-10-10T00:49:44.837Z,8.52
2022-10-10T00:50:51.491Z,8.58
2022-10-10T00:51:57.401Z,8.59
2022-10-10T00:53:01.324Z,8.58
2022-10-10T00:54:06.577Z,8.58
2022-10-10T00:55:09.924Z,8.54
2022-10-10T00:56:14.159Z,8.57
2022-10-10T00:57:17.341Z,8.57
2022-10-10T00:58:20.994Z,8.57
2022-10-10T00:59:25.241Z,8.57
2022-10-10T01:00:28.751Z,8.57
2022-10-10T01:01:31.813Z,8.56
2022-10-10T01:02:33.838Z,8.55
2022-10-10T01:03:37.046Z,8.56
2022-10-10T01:04:45.271Z,8.56
2022-10-10T01:05:50.961Z,8.55
2022-10-10T01:06:53.070Z,8.57
2022-10-10T01:07:56.703Z,8.57
2022-10-10T01:08:59.532Z,8.58
2022-10-10T01:10:07.641Z,8.55
2022-10-10T01:11:23.678Z,8.59
2022-10-10T01:12:31.946Z,8.60
2022-10-10T01:13:46.234Z,8.60
2022-10-10T01:14:59.742Z,8.61
2022-10-10T01:16:10.009Z,8.61
2022-10-10T01:17:20.221Z,8.60
2022-10-10T01:18:29.715Z,8.60
2022-10-10T01:20:13.134Z,8.61
2022-10-10T01:21:24.316Z,8.59
2022-10-10T01:22:34.049Z,8.59
2022-10-10T01:23:55.190Z,8.54
2022-10-10T01:25:12.850Z,8.59
2022-10-10T01:26:47.270Z,8.58
2022-10-10T01:27:53.258Z,8.58
2022-10-10T01:29:03.746Z,8.58
2022-10-10T01:30:10.894Z,8.57
2022-10-10T01:31:15.927Z,8.57
2022-10-10T01:32:27.907Z,8.57
2022-10-10T01:33:36.358Z,8.57
2022-10-10T01:34:47.681Z,8.58
2022-10-10T01:35:53.414Z,8.56
2022-10-10T01:37:02.654Z,8.56
2022-10-10T01:38:13.957Z,8.57
2022-10-10T01:39:22.128Z,8.53
2022-10-10T01:40:30.503Z,8.55
2022-10-10T01:41:38.168Z,8.49
2022-10-10T01:42:44.007Z,8.55
2022-10-10T01:43:47.187Z,8.54
2022-10-10T01:44:53.888Z,8.54
2022-10-10T01:45:57.292Z,8.53
2022-10-10T01:46:59.579Z,8.53
2022-10-10T01:48:04.820Z,8.52
2022-10-10T01:49:06.877Z,8.51
2022-10-10T01:50:16.262Z,8.51
2022-10-10T01:51:43.676Z,8.49
2022-10-10T01:52:54.531Z,8.49
2022-10-10T01:54:06.580Z,8.48
2022-10-10T01:55:25.901Z,8.47
2022-10-10T01:56:36.070Z,8.46
2022-10-10T01:57:48.546Z,8.45
2022-10-10T01:59:09.008Z,8.45
2022-10-10T02:00:14.711Z,8.45
2022-10-10T02:01:24.297Z,8.44
2022-10-10T02:02:35.094Z,8.43
2022-10-10T02:03:40.089Z,8.43
2022-10-10T02:04:48.414Z,8.41
2022-10-10T02:05:56.921Z,8.41
2022-10-10T02:07:05.245Z,8.38
2022-10-10T02:08:11.632Z,8.39
2022-10-10T02:09:19.447Z,8.39
2022-10-10T02:10:26.402Z,8.37
2022-10-10T02:11:32.502Z,8.36
2022-10-10T02:12:37.464Z,8.34
2022-10-10T02:13:43.385Z,8.34
2022-10-10T02:14:50.723Z,8.33
2022-10-10T02:15:58.009Z,8.25
2022-10-10T02:17:03.457Z,8.32
2022-10-10T02:18:08.583Z,8.30
2022-10-10T02:19:16.489Z,8.30
2022-10-10T02:20:23.984Z,8.28
2022-10-10T02:21:28.069Z,8.24
2022-10-10T02:22:30.300Z,8.27
2022-10-10T02:23:35.774Z,8.26
2022-10-10T02:24:37.894Z,8.27
2022-10-10T02:25:42.586Z,8.27
2022-10-10T02:26:48.867Z,8.26
2022-10-10T02:28:00.662Z,8.25
2022-10-10T02:29:06.417Z,8.22
2022-10-10T02:30:11.212Z,8.25
2022-10-10T02:31:19.099Z,8.25
2022-10-10T02:32:27.935Z,8.26
2022-10-10T02:33:38.205Z,8.25
2022-10-10T02:34:45.910Z,8.24
2022-10-10T02:35:50.416Z,8.23
2022-10-10T02:36:57.152Z,8.22
2022-10-10T02:38:01.844Z,8.21
2022-10-10T02:39:07.453Z,8.20
2022-10-10T02:40:12.293Z,8.19
2022-10-10T02:41:19.493Z,8.14
2022-10-10T02:42:23.756Z,8.18
2022-10-10T02:43:27.041Z,8.17
2022-10-10T02:44:29.759Z,8.17
2022-10-10T02:45:34.007Z,8.16
2022-10-10T02:46:37.452Z,8.14
2022-10-10T02:47:40.534Z,8.15
2022-10-10T02:48:42.907Z,8.14
2022-10-10T02:49:46.656Z,8.13
2022-10-10T02:50:48.812Z,8.13
2022-10-10T02:51:51.973Z,8.12
2022-10-10T02:52:54.139Z,8.09
2022-10-10T02:53:57.298Z,8.11
2022-10-10T02:54:59.581Z,8.11
2022-10-10T02:56:02.621Z,8.11
2022-10-10T02:57:04.792Z,8.09
2022-10-10T02:58:07.796Z,8.08
2022-10-10T02:59:09.866Z,8.08
2022-10-10T03:00:14.871Z,8.07
2022-10-10T03:01:17.079Z,8.06
2022-10-10T03:02:21.502Z,8.05
2022-10-10T03:03:23.554Z,8.05
2022-10-10T03:04:26.751Z,7.98
2022-10-10T03:05:28.807Z,8.03
2022-10-10T03:06:31.828Z,8.03
2022-10-10T03:07:33.962Z,8.02
2022-10-10T03:08:38.709Z,8.03
2022-10-10T03:09:40.750Z,8.01
2022-10-10T03:10:43.789Z,8.01
2022-10-10T03:11:45.793Z,8.01
2022-10-10T03:12:49.083Z,8.00
2022-10-10T03:13:51.362Z,7.99
2022-10-10T03:14:54.374Z,7.98
2022-10-10T03:15:56.549Z,7.97
2022-10-10T03:16:59.798Z,7.97
2022-10-10T03:18:03.261Z,7.96
2022-10-10T03:19:08.318Z,7.95
2022-10-10T03:20:11.559Z,7.94
2022-10-10T03:21:14.705Z,7.95
2022-10-10T03:22:17.132Z,7.94
2022-10-10T03:23:21.029Z,7.94
2022-10-10T03:24:23.040Z,7.94
2022-10-10T03:25:26.036Z,7.94
2022-10-10T03:26:28.120Z,7.92
2022-10-10T03:27:31.292Z,7.93
2022-10-10T03:28:33.515Z,7.93
2022-10-10T03:29:36.988Z,7.92
2022-10-10T03:30:39.297Z,7.92
2022-10-10T03:31:42.305Z,7.91
2022-10-10T03:32:44.361Z,7.90
2022-10-10T03:33:48.726Z,7.89
2022-10-10T03:34:50.736Z,7.90
2022-10-10T03:35:53.752Z,7.89
2022-10-10T03:36:56.915Z,7.88
2022-10-10T03:37:59.403Z,7.89
2022-10-10T03:39:02.568Z,7.87
2022-10-10T03:40:05.524Z,7.87
2022-10-10T03:41:08.665Z,7.86
2022-10-10T03:42:10.703Z,7.85
2022-10-10T03:43:15.311Z,7.84
2022-10-10T03:44:17.433Z,7.84
2022-10-10T03:45:20.513Z,7.52
2022-10-10T03:46:22.728Z,7.82
2022-10-10T03:47:25.764Z,7.80
2022-10-10T03:48:27.782Z,7.79
2022-10-10T03:49:32.300Z,7.78
2022-10-10T03:50:34.387Z,7.77
2022-10-10T03:51:37.461Z,7.77
2022-10-10T03:52:39.583Z,7.76
2022-10-10T03:53:42.834Z,7.75
2022-10-10T03:54:44.840Z,7.75
2022-10-10T03:55:47.931Z,7.74
2022-10-10T03:56:49.996Z,7.72
2022-10-10T03:57:53.085Z,7.72
2022-10-10T03:58:55.142Z,7.71
2022-10-10T03:59:58.196Z,7.70
2022-10-10T04:01:02.745Z,7.68
2022-10-10T04:02:05.825Z,7.68
2022-10-10T04:03:08.205Z,7.68
2022-10-10T04:04:11.304Z,7.66
2022-10-10T04:05:14.857Z,7.66
2022-10-10T04:06:18.078Z,7.65
2022-10-10T04:07:20.411Z,7.64
2022-10-10T04:08:24.023Z,7.63
2022-10-10T04:09:26.424Z,7.63
2022-10-10T04:10:43.122Z,7.62
2022-10-10T04:11:45.233Z,7.62
2022-10-10T04:12:48.441Z,7.61
2022-10-10T04:13:50.732Z,7.60
2022-10-10T04:14:53.804Z,7.60
2022-10-10T04:15:57.068Z,7.55
2022-10-10T04:17:03.194Z,7.59
2022-10-10T04:18:05.611Z,7.57
2022-10-10T04:19:08.658Z,7.56
2022-10-10T04:20:10.739Z,7.55
2022-10-10T04:21:15.174Z,7.56
2022-10-10T04:22:17.403Z,7.54
2022-10-10T04:23:20.892Z,7.54
2022-10-10T04:24:22.982Z,7.52
2022-10-10T04:25:26.721Z,7.52
2022-10-10T04:26:28.727Z,7.51
2022-10-10T04:27:31.848Z,7.50
2022-10-10T04:28:33.983Z,7.49
2022-10-10T04:29:37.081Z,7.48
2022-10-10T04:30:39.119Z,7.47
2022-10-10T04:31:42.146Z,7.46
2022-10-10T04:32:44.241Z,7.44
2022-10-10T04:33:47.241Z,7.43
2022-10-10T04:34:49.794Z,7.41
2022-10-10T04:35:52.983Z,7.42
2022-10-10T04:36:56.377Z,7.41
2022-10-10T04:37:59.517Z,7.39
2022-10-10T04:39:02.563Z,7.39
2022-10-10T04:40:05.082Z,7.37
2022-10-10T04:41:08.278Z,7.36
2022-10-10T04:42:10.364Z,7.37
2022-10-10T04:43:13.374Z,7.36
2022-10-10T04:44:15.588Z,7.35
2022-10-10T04:45:19.410Z,7.35
2022-10-10T04:46:22.459Z,7.34
2022-10-10T04:47:24.579Z,7.34
2022-10-10T04:48:27.858Z,7.34
2022-10-10T04:49:29.872Z,7.34
2022-10-10T04:50:33.224Z,7.35
2022-10-10T04:51:35.245Z,7.33
2022-10-10T04:52:39.790Z,7.33
2022-10-10T04:53:42.047Z,7.31
2022-10-10T04:54:46.305Z,7.31
2022-10-10T04:55:48.379Z,7.30
2022-10-10T04:56:51.428Z,7.29
2022-10-10T04:57:53.835Z,7.28
2022-10-10T04:58:57.070Z,7.26
2022-10-10T04:59:59.592Z,7.25
2022-10-10T05:01:02.658Z,7.23
2022-10-10T05:02:04.797Z,7.22
2022-10-10T05:03:08.386Z,7.22
2022-10-10T05:04:10.455Z,7.20
2022-10-10T05:05:13.565Z,7.20
2022-10-10T05:06:15.678Z,7.18
2022-10-10T05:07:18.718Z,7.19
2022-10-10T05:08:22.219Z,7.19
2022-10-10T05:09:25.491Z,7.18
2022-10-10T05:10:27.648Z,7.19
2022-10-10T05:11:30.706Z,7.17
2022-10-10T05:12:32.955Z,7.18
2022-10-10T05:13:36.025Z,7.17
2022-10-10T05:14:38.083Z,7.17
2022-10-10T05:15:41.315Z,7.13
2022-10-10T05:16:43.394Z,7.16
2022-10-10T05:17:46.484Z,7.16
2022-10-10T05:18:48.509Z,7.15
2022-10-10T05:19:51.612Z,7.15
2022-10-10T05:20:53.642Z,7.13
2022-10-10T05:21:56.656Z,7.13
2022-10-10T05:22:58.739Z,7.12
2022-10-10T05:24:03.295Z,7.11
2022-10-10T05:25:06.201Z,7.10
2022-10-10T05:26:09.883Z,7.10
2022-10-10T05:27:11.935Z,7.09
2022-10-10T05:28:15.034Z,7.07
2022-10-10T05:29:17.097Z,7.08
2022-10-10T05:30:20.296Z,7.07
2022-10-10T05:31:22.320Z,7.07
2022-10-10T05:32:25.377Z,7.06
2022-10-10T05:33:27.396Z,7.06
2022-10-10T05:34:30.606Z,7.06
2022-10-10T05:35:32.650Z,7.06
2022-10-10T05:36:35.667Z,7.05
2022-10-10T05:37:37.807Z,7.05
2022-10-10T05:38:42.098Z,7.04
2022-10-10T05:39:47.236Z,7.03
2022-10-10T05:40:51.154Z,7.04
2022-10-10T05:41:54.146Z,7.05
2022-10-10T05:42:56.176Z,7.04
2022-10-10T05:43:59.195Z,7.01
2022-10-10T05:45:01.234Z,7.04
2022-10-10T05:46:04.460Z,7.04
2022-10-10T05:47:06.550Z,7.04
2022-10-10T05:48:09.694Z,7.05
2022-10-10T05:49:11.783Z,7.04
2022-10-10T05:50:27.229Z,7.05
2022-10-10T05:51:29.258Z,7.04
2022-10-10T05:52:32.340Z,7.05
2022-10-10T05:53:34.444Z,7.06
2022-10-10T05:54:37.553Z,7.06
2022-10-10T05:55:40.979Z,7.02
2022-10-10T05:56:44.091Z,7.08
2022-10-10T05:57:46.768Z,7.07
2022-10-10T05:58:51.330Z,7.09
2022-10-10T05:59:53.452Z,7.10
2022-10-10T06:00:56.510Z,7.10
2022-10-10T06:01:58.848Z,7.11
2022-10-10T06:03:02.317Z,7.12
2022-10-10T06:04:04.474Z,7.13
2022-10-10T06:05:08.796Z,7.14
2022-10-10T06:06:10.923Z,7.15
2022-10-10T06:07:14.191Z,7.16
2022-10-10T06:08:19.964Z,7.15
2022-10-10T06:09:23.131Z,7.17
2022-10-10T06:10:28.637Z,7.19
2022-10-10T06:11:33.105Z,7.20
2022-10-10T06:12:35.132Z,7.22
2022-10-10T06:13:38.743Z,7.22
2022-10-10T06:14:40.852Z,7.23
2022-10-10T06:15:44.001Z,7.24
2022-10-10T06:16:46.104Z,7.26
2022-10-10T06:17:49.123Z,7.26
2022-10-10T06:18:51.393Z,7.21
2022-10-10T06:19:55.031Z,7.29
2022-10-10T06:21:04.641Z,7.30
2022-10-10T06:22:07.702Z,7.31
2022-10-10T06:23:09.718Z,7.32
2022-10-10T06:24:12.744Z,7.34
2022-10-10T06:25:35.374Z,7.36
2022-10-10T06:26:39.600Z,7.36
2022-10-10T06:27:42.230Z,7.38
2022-10-10T06:28:45.309Z,7.41
2022-10-10T06:29:47.399Z,7.40
2022-10-10T06:30:50.804Z,7.43
2022-10-10T06:31:52.872Z,7.44
2022-10-10T06:32:57.060Z,7.46
2022-10-10T06:33:59.165Z,7.47
2022-10-10T06:35:02.239Z,7.50
2022-10-10T06:36:06.721Z,7.50
2022-10-10T06:37:12.354Z,7.52
2022-10-10T06:38:16.646Z,7.54
2022-10-10T06:39:19.865Z,7.56
2022-10-10T06:40:21.901Z,7.56
2022-10-10T06:41:24.942Z,7.58
2022-10-10T06:42:28.400Z,7.61
2022-10-10T06:43:33.896Z,7.64
2022-10-10T06:44:35.933Z,7.66
2022-10-10T06:45:39.773Z,7.66
2022-10-10T06:46:43.313Z,7.68
2022-10-10T06:47:45.662Z,7.70
2022-10-10T06:48:49.303Z,7.70
2022-10-10T06:49:51.460Z,7.71
2022-10-10T06:50:58.394Z,7.71
2022-10-10T06:52:00.436Z,7.72
2022-10-10T06:53:03.621Z,7.74
2022-10-10T06:54:06.042Z,7.75
2022-10-10T06:55:09.709Z,7.76
2022-10-10T06:56:17.729Z,7.78
2022-10-10T06:57:19.749Z,7.80
2022-10-10T06:58:24.840Z,7.82
2022-10-10T06:59:26.882Z,7.83
2022-10-10T07:00:30.013Z,7.86
2022-10-10T07:01:33.103Z,7.88
2022-10-10T07:02:35.191Z,7.91
2022-10-10T07:03:38.230Z,7.95
2022-10-10T07:04:40.292Z,7.98
2022-10-10T07:05:43.474Z,8.03
2022-10-10T07:06:45.525Z,8.07
2022-10-10T07:07:48.572Z,8.08
2022-10-10T07:08:51.723Z,8.11
2022-10-10T07:09:53.797Z,8.13
2022-10-10T07:10:57.742Z,8.15
2022-10-10T07:11:59.805Z,8.17
2022-10-10T07:13:02.863Z,8.20
2022-10-10T07:14:07.246Z,8.23
2022-10-10T07:15:09.965Z,8.27
2022-10-10T07:16:12.965Z,8.30
2022-10-10T07:17:14.993Z,8.34
2022-10-10T07:18:18.520Z,8.37
2022-10-10T07:19:21.643Z,8.40
2022-10-10T07:20:24.741Z,8.43
2022-10-10T07:21:28.050Z,8.45
2022-10-10T07:22:30.067Z,8.48
2022-10-10T07:23:33.289Z,8.51
2022-10-10T07:24:35.332Z,8.54
2022-10-10T07:25:40.368Z,8.57
2022-10-10T07:26:42.505Z,8.60
2022-10-10T07:27:45.541Z,8.62
2022-10-10T07:28:48.910Z,8.65
2022-10-10T07:29:52.372Z,8.68
2022-10-10T07:31:00.802Z,8.72
2022-10-10T07:32:02.863Z,8.73
2022-10-10T07:33:05.924Z,8.76
2022-10-10T07:34:08.013Z,8.78
2022-10-10T07:35:11.998Z,8.81
2022-10-10T07:36:15.323Z,8.83
2022-10-10T07:37:17.366Z,8.85
2022-10-10T07:38:20.398Z,8.88
2022-10-10T07:39:24.829Z,8.91
2022-10-10T07:40:26.852Z,8.93
2022-10-10T07:41:29.960Z,8.94
2022-10-10T07:42:32.193Z,8.96
2022-10-10T07:43:35.225Z,8.98
2022-10-10T07:44:37.301Z,9.01
2022-10-10T07:45:41.731Z,9.05
2022-10-10T07:46:44.054Z,9.08
2022-10-10T07:47:47.098Z,9.10
2022-10-10T07:48:50.197Z,9.13
2022-10-10T07:49:52.285Z,9.18
2022-10-10T07:50:55.314Z,9.21
2022-10-10T07:52:00.426Z,9.25
2022-10-10T07:53:04.687Z,9.25
2022-10-10T07:54:06.840Z,9.29
2022-10-10T07:55:11.691Z,9.30
2022-10-10T07:56:14.190Z,9.36
2022-10-10T07:57:17.528Z,9.39
2022-10-10T07:58:20.698Z,9.42
2022-10-10T07:59:22.925Z,9.46
2022-10-10T08:00:26.249Z,9.50
2022-10-10T08:01:30.698Z,9.54
2022-10-10T08:02:32.780Z,9.58
2022-10-10T08:03:36.820Z,9.62
2022-10-10T08:04:40.440Z,9.66
2022-10-10T08:05:43.518Z,9.71
2022-10-10T08:06:46.569Z,9.74
2022-10-10T08:07:49.991Z,9.79
2022-10-10T08:08:52.623Z,9.82
2022-10-10T08:09:55.746Z,9.84
2022-10-10T08:10:59.014Z,9.88
2022-10-10T08:12:01.123Z,9.90
2022-10-10T08:13:04.309Z,9.93
2022-10-10T08:14:07.399Z,9.96
2022-10-10T08:16:13.438Z,10.03
2022-10-10T08:17:17.903Z,10.07
2022-10-10T08:18:20.097Z,10.12
2022-10-10T08:19:23.144Z,10.16
2022-10-10T08:20:25.167Z,10.21
2022-10-10T08:21:28.201Z,10.26
2022-10-10T08:22:30.259Z,10.31
2022-10-10T08:23:33.706Z,10.35
2022-10-10T08:24:36.701Z,10.38
2022-10-10T08:25:38.956Z,10.42
2022-10-10T08:26:41.984Z,10.46
2022-10-10T08:27:44.204Z,10.49
2022-10-10T08:28:48.679Z,10.53
2022-10-10T08:29:52.053Z,10.57
2022-10-10T08:30:54.400Z,10.61
2022-10-10T08:31:57.449Z,10.64
2022-10-10T08:33:02.612Z,10.70
2022-10-10T08:34:04.647Z,10.75
2022-10-10T08:35:08.474Z,10.80
2022-10-10T08:36:14.647Z,10.83
2022-10-10T08:37:17.695Z,10.89
2022-10-10T08:38:19.772Z,10.93
2022-10-10T08:39:22.818Z,10.96
2022-10-10T08:40:28.720Z,11.01
2022-10-10T08:41:40.323Z,11.06
2022-10-10T08:42:52.640Z,11.10
2022-10-10T08:44:00.994Z,11.12
2022-10-10T08:45:11.174Z,11.20
2022-10-10T08:46:19.414Z,11.24
2022-10-10T08:47:26.958Z,11.28
2022-10-10T08:48:31.546Z,11.31
2022-10-10T08:49:38.337Z,11.34
2022-10-10T08:50:43.699Z,11.40
2022-10-10T08:51:56.062Z,11.46
2022-10-10T08:53:03.015Z,11.50
2022-10-10T08:54:08.006Z,11.51
2022-10-10T08:55:17.687Z,11.56
2022-10-10T08:56:27.079Z,11.63
2022-10-10T08:57:34.554Z,11.68
2022-10-10T08:58:39.117Z,11.72
2022-10-10T08:59:44.179Z,11.77
2022-10-10T09:00:50.148Z,11.82
2022-10-10T09:02:20.061Z,11.86
2022-10-10T09:03:35.095Z,11.93
2022-10-10T09:04:37.169Z,11.98
2022-10-10T09:05:56.153Z,12.04
2022-10-10T09:07:15.092Z,12.10
2022-10-10T09:08:32.517Z,12.16
2022-10-10T09:09:41.868Z,12.19
2022-10-10T09:10:54.711Z,12.22
2022-10-10T09:12:07.049Z,12.24
2022-10-10T09:13:23.424Z,12.27
2022-10-10T09:14:36.736Z,12.29
2022-10-10T09:15:49.273Z,12.32
2022-10-10T09:16:57.230Z,12.35
2022-10-10T09:18:07.010Z,12.37
2022-10-10T09:19:24.576Z,12.42
2022-10-10T09:20:43.007Z,12.46
2022-10-10T09:21:47.208Z,12.51
2022-10-10T09:22:54.952Z,12.54
2022-10-10T09:24:04.391Z,12.59
2022-10-10T09:25:16.345Z,12.61
2022-10-10T09:26:24.238Z,12.66
2022-10-10T09:27:33.277Z,12.70
2022-10-10T09:28:39.199Z,12.73
2022-10-10T09:29:48.679Z,12.77
2022-10-10T09:30:57.904Z,12.81
2022-10-10T09:32:09.434Z,12.84
2022-10-10T09:33:24.679Z,12.90
2022-10-10T09:34:36.180Z,12.94
2022-10-10T09:35:42.685Z,12.97
2022-10-10T09:36:46.637Z,13.02
2022-10-10T09:37:52.092Z,13.07
2022-10-10T09:38:57.563Z,13.11
2022-10-10T09:40:04.124Z,13.17
2022-10-10T09:41:13.937Z,13.22
2022-10-10T09:42:19.418Z,13.26
2022-10-10T09:43:22.847Z,13.31
2022-10-10T09:44:32.443Z,13.37
2022-10-10T09:45:39.303Z,13.41
2022-10-10T09:46:42.381Z,13.46
2022-10-10T09:47:47.093Z,13.50
2022-10-10T09:48:50.304Z,13.54
2022-10-10T09:49:55.338Z,13.57
2022-10-10T09:50:57.861Z,13.62
2022-10-10T09:52:04.404Z,13.65
2022-10-10T09:53:07.522Z,13.70
2022-10-10T09:54:11.539Z,13.72
2022-10-10T09:55:26.488Z,13.76
2022-10-10T09:56:36.017Z,13.78
2022-10-10T09:57:40.989Z,13.83
2022-10-10T09:58:45.957Z,13.84
2022-10-10T09:59:49.322Z,13.94
2022-10-10T10:00:54.083Z,13.97
2022-10-10T10:02:04.029Z,14.03
2022-10-10T10:03:13.482Z,14.08
2022-10-10T10:04:34.249Z,14.13
2022-10-10T10:05:38.190Z,14.18
2022-10-10T10:06:45.809Z,14.22
2022-10-10T10:07:52.938Z,14.24
2022-10-10T10:08:56.130Z,14.28
2022-10-10T10:10:00.696Z,14.29
2022-10-10T10:11:21.569Z,14.28
2022-10-10T10:12:25.700Z,14.32
2022-10-10T10:13:31.507Z,14.34
2022-10-10T10:14:38.972Z,14.35
2022-10-10T10:15:51.465Z,14.35
2022-10-10T10:16:56.232Z,14.37
2022-10-10T10:18:25.097Z,14.36
2022-10-10T10:19:33.099Z,14.36
2022-10-10T10:20:39.307Z,14.37
2022-10-10T10:21:50.344Z,14.41
2022-10-10T10:23:58.954Z,14.44
2022-10-10T10:25:33.322Z,14.49
2022-10-10T10:26:45.474Z,14.53
2022-10-10T10:27:47.597Z,14.56
2022-10-10T10:28:52.357Z,14.61
2022-10-10T10:29:56.733Z,14.64
2022-10-10T10:31:00.206Z,14.65
2022-10-10T10:32:14.967Z,14.72
2022-10-10T10:33:28.099Z,14.76
2022-10-10T10:34:56.751Z,14.83
2022-10-10T10:36:09.013Z,14.85
2022-10-10T10:37:21.519Z,14.89
2022-10-10T10:38:37.232Z,14.95
2022-10-10T10:39:49.976Z,14.99
2022-10-10T10:41:05.321Z,15.05
2022-10-10T10:42:23.473Z,15.09
2022-10-10T10:43:38.788Z,15.15
2022-10-10T10:44:46.377Z,15.19
2022-10-10T10:46:00.359Z,15.23
2022-10-10T10:47:16.237Z,15.27
2022-10-10T10:48:28.954Z,15.31
2022-10-10T10:49:38.137Z,15.35
2022-10-10T10:50:49.702Z,15.38
2022-10-10T10:52:11.253Z,15.40
2022-10-10T10:53:22.432Z,15.44
2022-10-10T10:54:41.144Z,15.47
2022-10-10T10:55:51.200Z,15.48
2022-10-10T10:57:06.648Z,15.51
2022-10-10T10:59:09.872Z,15.53
2022-10-10T11:00:26.322Z,15.54
2022-10-10T11:01:55.229Z,15.63
2022-10-10T11:03:35.124Z,15.69
2022-10-10T11:05:24.768Z,15.81
2022-10-10T11:07:00.044Z,15.85
2022-10-10T11:08:32.139Z,15.88
2022-10-10T11:09:49.672Z,15.87
2022-10-10T11:11:06.160Z,15.90
2022-10-10T11:12:19.116Z,15.87
2022-10-10T11:13:29.570Z,15.87
2022-10-10T11:14:49.092Z,15.88
2022-10-10T11:16:24.327Z,15.86
2022-10-10T11:17:26.018Z,15.85
2022-10-10T11:18:34.375Z,15.83
2022-10-10T11:19:42.538Z,15.83
2022-10-10T11:20:48.792Z,15.81
2022-10-10T11:21:56.279Z,15.82
2022-10-10T11:23:08.954Z,15.80
2022-10-10T11:24:19.726Z,15.80
2022-10-10T11:25:30.893Z,15.80
2022-10-10T11:26:38.249Z,15.72
2022-10-10T11:27:56.529Z,15.80
2022-10-10T11:29:03.216Z,15.81
2022-10-10T11:30:14.878Z,15.83
2022-10-10T11:31:21.466Z,15.88
2022-10-10T11:32:31.476Z,15.92
2022-10-10T11:33:40.005Z,15.96
2022-10-10T11:34:46.954Z,16.01
2022-10-10T11:35:54.765Z,16.06
2022-10-10T11:37:04.601Z,16.18
2022-10-10T11:38:16.831Z,16.24
2022-10-10T11:39:25.330Z,16.30
2022-10-10T11:40:46.303Z,16.37
2022-10-10T11:41:57.528Z,16.39
2022-10-10T11:43:05.044Z,16.39
2022-10-10T11:44:16.216Z,16.38
2022-10-10T11:45:26.601Z,16.40
2022-10-10T11:46:35.680Z,16.39
2022-10-10T11:47:44.683Z,16.38
2022-10-10T11:48:56.550Z,16.46
2022-10-10T11:50:04.252Z,16.52
2022-10-10T11:51:21.278Z,16.58
2022-10-10T11:52:34.883Z,16.66
2022-10-10T11:53:43.505Z,16.71
2022-10-10T11:54:54.333Z,16.74
2022-10-10T11:56:04.347Z,16.78
2022-10-10T11:57:19.206Z,16.79
2022-10-10T11:58:33.856Z,16.80
2022-10-10T11:59:46.272Z,16.82
2022-10-10T12:00:59.891Z,16.82
2022-10-10T12:02:21.415Z,16.83
2022-10-10T12:03:26.187Z,16.86
2022-10-10T12:04:37.906Z,16.88
2022-10-10T12:05:46.118Z,16.91
2022-10-10T12:06:56.995Z,16.92
2022-10-10T12:08:08.558Z,16.91
2022-10-10T12:09:18.649Z,16.94
2022-10-10T12:10:26.071Z,16.95
2022-10-10T12:11:34.125Z,16.97
2022-10-10T12:12:45.232Z,16.96
2022-10-10T12:13:57.788Z,16.99
2022-10-10T12:15:05.006Z,16.98
2022-10-10T12:16:11.462Z,16.95
2022-10-10T12:17:26.920Z,16.92
2022-10-10T12:18:43.017Z,16.93
2022-10-10T12:19:50.682Z,16.92
2022-10-10T12:21:14.868Z,16.94
2022-10-10T12:22:28.659Z,16.94
2022-10-10T12:23:32.682Z,16.94
2022-10-10T12:24:43.128Z,16.93
2022-10-10T12:25:47.783Z,16.91
2022-10-10T12:27:29.449Z,16.90
2022-10-10T12:28:38.084Z,16.90
2022-10-10T12:29:51.259Z,16.91
2022-10-10T12:31:28.511Z,16.91
2022-10-10T12:32:41.543Z,16.96
2022-10-10T12:34:16.945Z,16.95
2022-10-10T12:35:45.343Z,17.00
2022-10-10T12:37:20.429Z,17.02
2022-10-10T12:38:28.689Z,16.80
2022-10-10T12:39:38.624Z,16.99
2022-10-10T12:41:13.186Z,17.05
2022-10-10T12:42:32.472Z,17.05
2022-10-10T12:43:46.385Z,17.05
2022-10-10T12:44:52.801Z,17.00
2022-10-10T12:46:15.643Z,16.95
2022-10-10T12:47:59.712Z,16.98
2022-10-10T12:49:15.083Z,16.96
2022-10-10T12:50:25.208Z,16.94
2022-10-10T12:51:30.956Z,16.94
2022-10-10T12:52:37.553Z,16.73
2022-10-10T12:53:39.885Z,16.74
2022-10-10T12:54:45.700Z,16.93
2022-10-10T12:55:50.265Z,16.91
2022-10-10T12:57:02.573Z,16.88
2022-10-10T12:58:17.239Z,16.86
2022-10-10T12:59:27.973Z,16.82
2022-10-10T13:00:39.803Z,16.78
2022-10-10T13:01:46.881Z,16.76
2022-10-10T13:02:54.803Z,16.74
2022-10-10T13:03:57.996Z,16.71
2022-10-10T13:05:04.515Z,16.70
2022-10-10T13:06:15.528Z,16.69
2022-10-10T13:07:22.054Z,16.69
2022-10-10T13:08:27.620Z,16.69
2022-10-10T13:09:35.869Z,16.70
2022-10-10T13:10:38.355Z,16.67
2022-10-10T13:11:59.338Z,16.71
2022-10-10T13:13:04.167Z,16.68
2022-10-10T13:14:10.201Z,16.72
2022-10-10T13:15:20.089Z,16.68
2022-10-10T13:16:29.927Z,16.71
2022-10-10T13:17:39.020Z,16.72
2022-10-10T13:18:44.193Z,16.71
2022-10-10T13:19:47.362Z,16.73
2022-10-10T13:20:50.538Z,16.71
2022-10-10T13:21:55.936Z,16.75
2022-10-10T13:22:58.886Z,16.76
2022-10-10T13:24:04.830Z,16.77
2022-10-10T13:25:11.552Z,16.72
2022-10-10T13:26:22.761Z,16.77
2022-10-10T13:27:28.294Z,16.67
2022-10-10T13:28:30.479Z,16.79
2022-10-10T13:29:35.908Z,16.80
2022-10-10T13:30:38.118Z,16.79
2022-10-10T13:31:44.402Z,16.77
2022-10-10T13:32:46.786Z,16.77
2022-10-10T13:33:50.379Z,16.75
2022-10-10T13:34:56.382Z,16.73
2022-10-10T13:36:06.792Z,16.76
2022-10-10T13:37:15.987Z,16.76
2022-10-10T13:38:24.874Z,16.77
2022-10-10T13:39:29.712Z,16.76
2022-10-10T13:40:31.884Z,16.79
2022-10-10T13:41:35.321Z,16.78
2022-10-10T13:42:40.074Z,16.76
2022-10-10T13:43:42.311Z,16.77
2022-10-10T13:44:49.990Z,16.75
2022-10-10T13:45:58.453Z,16.73
2022-10-10T13:47:55.731Z,16.71
2022-10-10T13:48:59.037Z,16.67
2022-10-10T13:50:03.995Z,16.67
2022-10-10T13:51:10.394Z,16.65
2022-10-10T13:52:21.982Z,16.63
2022-10-10T13:53:32.967Z,16.62
2022-10-10T13:54:42.821Z,16.60
2022-10-10T13:55:45.019Z,16.58
2022-10-10T13:56:48.144Z,16.56
2022-10-10T13:57:51.355Z,16.55
2022-10-10T13:58:57.042Z,16.52
2022-10-10T14:00:01.836Z,16.47
2022-10-10T14:01:22.284Z,16.51
2022-10-10T14:02:32.788Z,16.49
2022-10-10T14:03:35.568Z,16.48
2022-10-10T14:04:44.810Z,16.47
2022-10-10T14:05:47.158Z,16.47
2022-10-10T14:06:57.202Z,16.47
2022-10-10T14:07:59.916Z,16.48
2022-10-10T14:09:11.098Z,16.49
2022-10-10T14:10:18.057Z,16.52
2022-10-10T14:11:22.814Z,16.54
2022-10-10T14:12:30.241Z,16.56
2022-10-10T14:13:34.148Z,16.58
2022-10-10T14:14:44.223Z,16.59
2022-10-10T14:15:47.747Z,16.60
2022-10-10T14:16:59.456Z,16.61
2022-10-10T14:18:12.484Z,16.61
2022-10-10T14:19:19.362Z,16.61
2022-10-10T14:20:22.401Z,16.61
2022-10-10T14:21:25.778Z,16.61
2022-10-10T14:22:28.877Z,16.60
2022-10-10T14:23:30.934Z,16.52
2022-10-10T14:24:34.153Z,16.59
2022-10-10T14:25:38.417Z,16.57
2022-10-10T14:26:41.450Z,16.54
2022-10-10T14:27:43.665Z,16.54
2022-10-10T14:28:46.935Z,16.53
2022-10-10T14:29:49.305Z,16.52
2022-10-10T14:30:52.656Z,16.50
2022-10-10T14:31:54.741Z,16.50
2022-10-10T14:32:57.851Z,16.49
2022-10-10T14:34:01.327Z,16.49
2022-10-10T14:35:04.695Z,16.48
2022-10-10T14:36:07.133Z,16.46
2022-10-10T14:37:18.260Z,16.46
2022-10-10T14:38:21.729Z,16.45